Billie H — WCY4992 — position and weather

sailwx.info

Track history (hours):
 
Tides and Currents Weather Stations Pressure Air Temp Water Temp Dewpoint Dewpoint Depression Visibility Wind Speed Wind Dir Waves Ship Positions

Billie H

More information available from US FCC via Universal Licensing System and Coast Guard Vessel Documentation Center.

Last reported at 2014-Jul-30 22:51 UTC. Time now 2014-Jul-31 17:39 UTC.
Position N 47°33' W 122°20'.

Type: Tug. MMSI: 366751770.

Date/timePositionNaut miles runAvg speedWind from/ knotsBaromVisibWave heightAir tempDewpointWater temp
2014-Jul-30 22:51N 47°33' W 122°20'1 3.9
2014-Jul-30 22:31N 47°34' W 122°21'0 0.0
2014-Jul-30 22:31N 47°34' W 122°21'0 0.1
2014-Jul-30 21:33N 47°34' W 122°21'2 5.6
2014-Jul-30 21:16N 47°33' W 122°20'0 0.7
2014-Jul-30 20:33N 47°32' W 122°20'0 0.0
2014-Jul-30 19:27N 47°32' W 122°20'0 0.0
2014-Jul-30 18:30N 47°32' W 122°20'0 0.0
2014-Jul-30 17:33N 47°32' W 122°20'0 0.0
2014-Jul-30 17:14N 47°32' W 122°20'0 0.0
2014-Jul-30 16:33N 47°32' W 122°20'0 0.0
2014-Jul-30 15:33N 47°32' W 122°20'0 0.0
2014-Jul-30 14:32N 47°32' W 122°20'0 0.0
2014-Jul-30 13:29N 47°32' W 122°20'0 0.0
2014-Jul-30 12:32N 47°32' W 122°20'0 0.0
2014-Jul-30 11:32N 47°32' W 122°20'0 0.0
2014-Jul-30 10:32N 47°32' W 122°20'0 0.0
2014-Jul-30 09:32N 47°32' W 122°20'0 0.0
2014-Jul-30 08:32N 47°32' W 122°20'0 0.0
2014-Jul-30 07:32N 47°32' W 122°20'0 0.0
2014-Jul-30 07:23N 47°32' W 122°20'0 0.0
2014-Jul-30 06:32N 47°32' W 122°20'0 0.0
2014-Jul-30 06:23N 47°32' W 122°20'0 0.0
2014-Jul-30 05:32N 47°32' W 122°20'0 0.0
2014-Jul-30 05:02N 47°32' W 122°20'0 0.0
2014-Jul-30 04:32N 47°32' W 122°20'0 0.0
2014-Jul-30 04:02N 47°32' W 122°20'0 0.0
2014-Jul-30 03:26N 47°32' W 122°20'0 0.0
2014-Jul-30 03:17N 47°32' W 122°20'0 0.0
2014-Jul-30 02:32N 47°32' W 122°20'0 0.0
2014-Jul-30 02:32N 47°32' W 122°20'0 0.0
2014-Jul-30 01:32N 47°32' W 122°20'0 0.0
2014-Jul-30 01:32N 47°32' W 122°20'0 0.0
2014-Jul-30 00:32N 47°32' W 122°20'0 0.0
2014-Jul-30 00:32N 47°32' W 122°20'0 0.0
2014-Jul-29 23:32N 47°32' W 122°20'0 0.0
2014-Jul-29 23:32N 47°32' W 122°20'0 0.0
2014-Jul-29 22:32N 47°32' W 122°20'0 0.0
2014-Jul-29 21:35N 47°32' W 122°20'0 0.0
2014-Jul-29 21:29N 47°32' W 122°20'0 0.0
2014-Jul-29 21:20N 47°32' W 122°20'0 0.0
2014-Jul-29 20:32N 47°32' W 122°20'0 0.0
2014-Jul-29 20:20N 47°32' W 122°20'0 0.0
2014-Jul-29 19:32N 47°32' W 122°20'0 0.0
2014-Jul-29 18:32N 47°32' W 122°20'0 0.0
2014-Jul-29 17:32N 47°32' W 122°20'0 0.0
2014-Jul-29 16:32N 47°32' W 122°20'0 0.0
2014-Jul-29 15:32N 47°32' W 122°20'0 0.0
2014-Jul-29 15:14N 47°32' W 122°20'0 0.0
2014-Jul-29 14:32N 47°32' W 122°20'0 0.0
2014-Jul-29 13:32N 47°32' W 122°20'0 0.0
2014-Jul-29 12:32N 47°32' W 122°20'0 0.0
2014-Jul-29 11:32N 47°32' W 122°20'0 0.0
2014-Jul-29 10:32N 47°32' W 122°20'0 0.0
2014-Jul-29 09:29N 47°32' W 122°20'0 0.0
2014-Jul-29 08:56N 47°32' W 122°20'0 0.0
2014-Jul-29 08:32N 47°32' W 122°20'0 0.0
2014-Jul-29 07:32N 47°32' W 122°20'0 0.0
2014-Jul-29 06:32N 47°32' W 122°20'0 0.0
2014-Jul-29 05:32N 47°32' W 122°20'0 0.0
2014-Jul-29 04:32N 47°32' W 122°20'0 0.0
2014-Jul-29 03:32N 47°32' W 122°20'0 0.0
2014-Jul-29 02:32N 47°32' W 122°20'0 0.0
2014-Jul-29 01:31N 47°32' W 122°20'0 0.0
2014-Jul-29 00:28N 47°32' W 122°20'0 0.0
2014-Jul-28 23:16N 47°32' W 122°20'0 0.0
2014-Jul-28 22:31N 47°32' W 122°20'1 0.0
2014-Jul-28 11:36N 47°33' W 122°20'0 4.1
2014-Jul-28 11:33N 47°33' W 122°20'1 6.7
2014-Jul-28 11:27N 47°33' W 122°21'8 9.4
2014-Jul-28 10:33N 47°41' W 122°27'1211.8
2014-Jul-28 09:33N 47°52' W 122°22'1111.1
2014-Jul-28 08:33N 48°03' W 122°24'1311.2
2014-Jul-28 07:24N 48°15' W 122°33'1010.1
2014-Jul-28 06:23N 48°25' W 122°36'7 9.0
2014-Jul-28 05:33N 48°29' W 122°45'1212.5
2014-Jul-28 04:33N 48°42' W 122°45'1211.6
2014-Jul-28 03:33N 48°50' W 122°58'1211.8
2014-Jul-28 02:33N 48°56' W 123°13'1111.5
2014-Jul-28 01:33N 49°03' W 123°26'1110.8
2014-Jul-28 00:33N 49°11' W 123°38'1111.3
2014-Jul-27 23:33N 49°18' W 123°52'1211.7
2014-Jul-27 22:33N 49°26' W 124°04'1211.7
2014-Jul-27 21:33N 49°33' W 124°19'1211.4
2014-Jul-27 20:33N 49°39' W 124°34'1211.8
2014-Jul-27 19:33N 49°47' W 124°48'1211.1
2014-Jul-27 18:25N 49°55' W 125°03'11 9.2
2014-Jul-27 17:14N 50°03' W 125°14'6 8.4
2014-Jul-27 16:29N 50°08' W 125°21'8 8.1
2014-Jul-27 15:33N 50°15' W 125°23'41 9.5
2014-Jul-27 11:13N 50°29' W 126°24'811.1
2014-Jul-27 10:31N 50°30' W 126°36'1110.8
2014-Jul-27 09:30N 50°38' W 126°48'1111.7
2014-Jul-27 08:33N 50°43' W 127°04'1211.7
2014-Jul-27 07:33N 50°51' W 127°18'1211.8
2014-Jul-27 06:33N 50°58' W 127°32'1111.3
2014-Jul-27 05:33N 51°06' W 127°45'2210.9
2014-Jul-27 03:33N 51°27' W 127°52'3511.6
2014-Jul-27 00:33N 52°02' W 127°56'10 9.0
2014-Jul-26 23:25N 52°09' W 128°08'  
Track history (hours):
 
Tides and Currents Weather Stations Pressure Air Temp Water Temp Dewpoint Dewpoint Depression Visibility Wind Speed Wind Dir Waves Ship Positions

Billie H

More information available from US FCC via Universal Licensing System and Coast Guard Vessel Documentation Center.

Last reported at 2014-Jul-30 22:51 UTC. Time now 2014-Jul-31 17:39 UTC.
Position N 47°33' W 122°20'.

Type: Tug. MMSI: 366751770.

Date/timePositionNaut miles runAvg speedWind from/ knotsBaromVisibWave heightAir tempDewpointWater temp
2014-Jul-30 22:51N 47°33' W 122°20'1 3.9
2014-Jul-30 22:31N 47°34' W 122°21'0 0.0
2014-Jul-30 22:31N 47°34' W 122°21'0 0.1
2014-Jul-30 21:33N 47°34' W 122°21'2 5.6
2014-Jul-30 21:16N 47°33' W 122°20'0 0.7
2014-Jul-30 20:33N 47°32' W 122°20'0 0.0
2014-Jul-30 19:27N 47°32' W 122°20'0 0.0
2014-Jul-30 18:30N 47°32' W 122°20'0 0.0
2014-Jul-30 17:33N 47°32' W 122°20'0 0.0
2014-Jul-30 17:14N 47°32' W 122°20'0 0.0
2014-Jul-30 16:33N 47°32' W 122°20'0 0.0
2014-Jul-30 15:33N 47°32' W 122°20'0 0.0
2014-Jul-30 14:32N 47°32' W 122°20'0 0.0
2014-Jul-30 13:29N 47°32' W 122°20'0 0.0
2014-Jul-30 12:32N 47°32' W 122°20'0 0.0
2014-Jul-30 11:32N 47°32' W 122°20'0 0.0
2014-Jul-30 10:32N 47°32' W 122°20'0 0.0
2014-Jul-30 09:32N 47°32' W 122°20'0 0.0
2014-Jul-30 08:32N 47°32' W 122°20'0 0.0
2014-Jul-30 07:32N 47°32' W 122°20'0 0.0
2014-Jul-30 07:23N 47°32' W 122°20'0 0.0
2014-Jul-30 06:32N 47°32' W 122°20'0 0.0
2014-Jul-30 06:23N 47°32' W 122°20'0 0.0
2014-Jul-30 05:32N 47°32' W 122°20'0 0.0
2014-Jul-30 05:02N 47°32' W 122°20'0 0.0
2014-Jul-30 04:32N 47°32' W 122°20'0 0.0
2014-Jul-30 04:02N 47°32' W 122°20'0 0.0
2014-Jul-30 03:26N 47°32' W 122°20'0 0.0
2014-Jul-30 03:17N 47°32' W 122°20'0 0.0
2014-Jul-30 02:32N 47°32' W 122°20'0 0.0
2014-Jul-30 02:32N 47°32' W 122°20'0 0.0
2014-Jul-30 01:32N 47°32' W 122°20'0 0.0
2014-Jul-30 01:32N 47°32' W 122°20'0 0.0
2014-Jul-30 00:32N 47°32' W 122°20'0 0.0
2014-Jul-30 00:32N 47°32' W 122°20'0 0.0
2014-Jul-29 23:32N 47°32' W 122°20'0 0.0
2014-Jul-29 23:32N 47°32' W 122°20'0 0.0
2014-Jul-29 22:32N 47°32' W 122°20'0 0.0
2014-Jul-29 21:35N 47°32' W 122°20'0 0.0
2014-Jul-29 21:29N 47°32' W 122°20'0 0.0
2014-Jul-29 21:20N 47°32' W 122°20'0 0.0
2014-Jul-29 20:32N 47°32' W 122°20'0 0.0
2014-Jul-29 20:20N 47°32' W 122°20'0 0.0
2014-Jul-29 19:32N 47°32' W 122°20'0 0.0
2014-Jul-29 18:32N 47°32' W 122°20'0 0.0
2014-Jul-29 17:32N 47°32' W 122°20'0 0.0
2014-Jul-29 16:32N 47°32' W 122°20'0 0.0
2014-Jul-29 15:32N 47°32' W 122°20'0 0.0
2014-Jul-29 15:14N 47°32' W 122°20'0 0.0
2014-Jul-29 14:32N 47°32' W 122°20'0 0.0
2014-Jul-29 13:32N 47°32' W 122°20'0 0.0
2014-Jul-29 12:32N 47°32' W 122°20'0 0.0
2014-Jul-29 11:32N 47°32' W 122°20'0 0.0
2014-Jul-29 10:32N 47°32' W 122°20'0 0.0
2014-Jul-29 09:29N 47°32' W 122°20'0 0.0
2014-Jul-29 08:56N 47°32' W 122°20'0 0.0
2014-Jul-29 08:32N 47°32' W 122°20'0 0.0
2014-Jul-29 07:32N 47°32' W 122°20'0 0.0
2014-Jul-29 06:32N 47°32' W 122°20'0 0.0
2014-Jul-29 05:32N 47°32' W 122°20'0 0.0
2014-Jul-29 04:32N 47°32' W 122°20'0 0.0
2014-Jul-29 03:32N 47°32' W 122°20'0 0.0
2014-Jul-29 02:32N 47°32' W 122°20'0 0.0
2014-Jul-29 01:31N 47°32' W 122°20'0 0.0
2014-Jul-29 00:28N 47°32' W 122°20'0 0.0
2014-Jul-28 23:16N 47°32' W 122°20'0 0.0
2014-Jul-28 22:31N 47°32' W 122°20'1 0.0
2014-Jul-28 11:36N 47°33' W 122°20'0 4.1
2014-Jul-28 11:33N 47°33' W 122°20'1 6.7
2014-Jul-28 11:27N 47°33' W 122°21'8 9.4
2014-Jul-28 10:33N 47°41' W 122°27'1211.8
2014-Jul-28 09:33N 47°52' W 122°22'1111.1
2014-Jul-28 08:33N 48°03' W 122°24'1311.2
2014-Jul-28 07:24N 48°15' W 122°33'1010.1
2014-Jul-28 06:23N 48°25' W 122°36'7 9.0
2014-Jul-28 05:33N 48°29' W 122°45'1212.5
2014-Jul-28 04:33N 48°42' W 122°45'1211.6
2014-Jul-28 03:33N 48°50' W 122°58'1211.8
2014-Jul-28 02:33N 48°56' W 123°13'1111.5
2014-Jul-28 01:33N 49°03' W 123°26'1110.8
2014-Jul-28 00:33N 49°11' W 123°38'1111.3
2014-Jul-27 23:33N 49°18' W 123°52'1211.7
2014-Jul-27 22:33N 49°26' W 124°04'1211.7
2014-Jul-27 21:33N 49°33' W 124°19'1211.4
2014-Jul-27 20:33N 49°39' W 124°34'1211.8
2014-Jul-27 19:33N 49°47' W 124°48'1211.1
2014-Jul-27 18:25N 49°55' W 125°03'11 9.2
2014-Jul-27 17:14N 50°03' W 125°14'6 8.4
2014-Jul-27 16:29N 50°08' W 125°21'8 8.1
2014-Jul-27 15:33N 50°15' W 125°23'41 9.5
2014-Jul-27 11:13N 50°29' W 126°24'811.1
2014-Jul-27 10:31N 50°30' W 126°36'1110.8
2014-Jul-27 09:30N 50°38' W 126°48'1111.7
2014-Jul-27 08:33N 50°43' W 127°04'1211.7
2014-Jul-27 07:33N 50°51' W 127°18'1211.8
2014-Jul-27 06:33N 50°58' W 127°32'1111.3
2014-Jul-27 05:33N 51°06' W 127°45'2210.9
2014-Jul-27 03:33N 51°27' W 127°52'3511.6
2014-Jul-27 00:33N 52°02' W 127°56'10 9.0
2014-Jul-26 23:25N 52°09' W 128°08'  

Dump ship's entire track history